sensor_id;sensor_type;location;lat;lon;timestamp;temperature;humidity
75994;DHT22;64680;53.800;9.988;2023-06-22T00:02:22;14.80;72.70
75994;DHT22;64680;53.800;9.988;2023-06-22T00:04:47;14.80;72.60
75994;DHT22;64680;53.800;9.988;2023-06-22T00:07:13;14.80;71.80
75994;DHT22;64680;53.800;9.988;2023-06-22T00:09:39;14.80;69.50
75994;DHT22;64680;53.800;9.988;2023-06-22T00:12:05;14.70;70.00
75994;DHT22;64680;53.800;9.988;2023-06-22T00:14:30;14.70;70.00
75994;DHT22;64680;53.800;9.988;2023-06-22T00:16:56;14.70;71.00
75994;DHT22;64680;53.800;9.988;2023-06-22T00:19:23;14.70;72.40
75994;DHT22;64680;53.800;9.988;2023-06-22T00:21:49;14.70;71.80
75994;DHT22;64680;53.800;9.988;2023-06-22T00:24:21;14.60;72.40
75994;DHT22;64680;53.800;9.988;2023-06-22T00:26:50;14.50;72.30
75994;DHT22;64680;53.800;9.988;2023-06-22T00:29:16;14.50;74.10
75994;DHT22;64680;53.800;9.988;2023-06-22T00:31:42;14.50;75.70
75994;DHT22;64680;53.800;9.988;2023-06-22T00:34:08;14.40;76.90
75994;DHT22;64680;53.800;9.988;2023-06-22T00:36:35;14.40;77.30
75994;DHT22;64680;53.800;9.988;2023-06-22T00:39:01;14.40;77.60
75994;DHT22;64680;53.800;9.988;2023-06-22T00:41:26;14.50;79.00
75994;DHT22;64680;53.800;9.988;2023-06-22T00:43:54;14.50;78.80
75994;DHT22;64680;53.800;9.988;2023-06-22T00:46:21;14.50;78.80
75994;DHT22;64680;53.800;9.988;2023-06-22T00:48:48;14.40;74.90
75994;DHT22;64680;53.800;9.988;2023-06-22T00:51:14;14.40;74.20
75994;DHT22;64680;53.800;9.988;2023-06-22T00:53:39;14.40;73.70
75994;DHT22;64680;53.800;9.988;2023-06-22T00:56:06;14.40;74.80
75994;DHT22;64680;53.800;9.988;2023-06-22T00:58:35;14.40;75.90
75994;DHT22;64680;53.800;9.988;2023-06-22T01:01:01;14.40;77.30
75994;DHT22;64680;53.800;9.988;2023-06-22T01:03:27;14.40;79.60
75994;DHT22;64680;53.800;9.988;2023-06-22T01:06:04;14.40;81.40
75994;DHT22;64680;53.800;9.988;2023-06-22T01:08:38;14.40;81.30
75994;DHT22;64680;53.800;9.988;2023-06-22T01:21:56;14.50;80.20
75994;DHT22;64680;53.800;9.988;2023-06-22T01:27:36;14.50;79.30
75994;DHT22;64680;53.800;9.988;2023-06-22T01:30:08;14.50;78.50
75994;DHT22;64680;53.800;9.988;2023-06-22T01:32:37;14.50;78.90
75994;DHT22;64680;53.800;9.988;2023-06-22T01:35:06;14.50;78.50
75994;DHT22;64680;53.800;9.988;2023-06-22T01:37:33;14.50;78.40
75994;DHT22;64680;53.800;9.988;2023-06-22T01:39:59;14.50;78.30
75994;DHT22;64680;53.800;9.988;2023-06-22T01:42:26;14.40;78.70
75994;DHT22;64680;53.800;9.988;2023-06-22T01:44:53;14.40;79.50
75994;DHT22;64680;53.800;9.988;2023-06-22T01:47:22;14.40;79.90
75994;DHT22;64680;53.800;9.988;2023-06-22T01:49:49;14.40;79.80
75994;DHT22;64680;53.800;9.988;2023-06-22T01:52:15;14.40;80.30
75994;DHT22;64680;53.800;9.988;2023-06-22T01:54:41;14.30;80.80
75994;DHT22;64680;53.800;9.988;2023-06-22T01:57:07;14.40;81.60
75994;DHT22;64680;53.800;9.988;2023-06-22T02:02:21;14.40;80.40
75994;DHT22;64680;53.800;9.988;2023-06-22T02:04:57;14.40;81.00
75994;DHT22;64680;53.800;9.988;2023-06-22T02:07:29;14.40;80.40
75994;DHT22;64680;53.800;9.988;2023-06-22T02:09:58;14.40;78.90
75994;DHT22;64680;53.800;9.988;2023-06-22T02:12:25;14.30;77.40
75994;DHT22;64680;53.800;9.988;2023-06-22T02:14:53;14.30;78.50
75994;DHT22;64680;53.800;9.988;2023-06-22T02:17:19;14.30;80.10
75994;DHT22;64680;53.800;9.988;2023-06-22T02:19:45;14.30;79.40
75994;DHT22;64680;53.800;9.988;2023-06-22T02:22:11;14.30;78.90
75994;DHT22;64680;53.800;9.988;2023-06-22T02:24:38;14.30;79.00
75994;DHT22;64680;53.800;9.988;2023-06-22T02:27:03;14.30;79.10
75994;DHT22;64680;53.800;9.988;2023-06-22T02:29:31;14.30;78.90
75994;DHT22;64680;53.800;9.988;2023-06-22T02:31:56;14.20;78.80
75994;DHT22;64680;53.800;9.988;2023-06-22T02:34:22;14.30;81.20
75994;DHT22;64680;53.800;9.988;2023-06-22T02:36:49;14.30;81.40
75994;DHT22;64680;53.800;9.988;2023-06-22T02:39:23;14.30;80.10
75994;DHT22;64680;53.800;9.988;2023-06-22T02:41:52;14.30;79.00
75994;DHT22;64680;53.800;9.988;2023-06-22T02:44:19;14.20;79.40
75994;DHT22;64680;53.800;9.988;2023-06-22T02:46:46;14.20;81.20
75994;DHT22;64680;53.800;9.988;2023-06-22T02:49:12;14.20;81.40
75994;DHT22;64680;53.800;9.988;2023-06-22T02:51:45;14.10;82.00
75994;DHT22;64680;53.800;9.988;2023-06-22T02:54:11;14.20;82.40
75994;DHT22;64680;53.800;9.988;2023-06-22T02:56:36;14.20;83.60
75994;DHT22;64680;53.800;9.988;2023-06-22T02:59:02;14.20;83.70
75994;DHT22;64680;53.800;9.988;2023-06-22T03:01:29;14.20;81.40
75994;DHT22;64680;53.800;9.988;2023-06-22T03:03:58;14.20;80.10
75994;DHT22;64680;53.800;9.988;2023-06-22T03:06:24;14.10;80.40
75994;DHT22;64680;53.800;9.988;2023-06-22T03:09:04;14.20;81.40
75994;DHT22;64680;53.800;9.988;2023-06-22T03:11:31;14.20;81.30
75994;DHT22;64680;53.800;9.988;2023-06-22T03:13:57;14.10;80.20
75994;DHT22;64680;53.800;9.988;2023-06-22T03:16:22;14.10;77.90
75994;DHT22;64680;53.800;9.988;2023-06-22T03:18:48;14.00;79.30
75994;DHT22;64680;53.800;9.988;2023-06-22T03:21:13;14.10;80.10
75994;DHT22;64680;53.800;9.988;2023-06-22T03:23:41;14.10;80.50
75994;DHT22;64680;53.800;9.988;2023-06-22T03:26:08;14.10;81.20
75994;DHT22;64680;53.800;9.988;2023-06-22T03:28:33;14.10;82.00
75994;DHT22;64680;53.800;9.988;2023-06-22T03:30:59;14.10;80.60
75994;DHT22;64680;53.800;9.988;2023-06-22T03:33:25;14.10;76.10
75994;DHT22;64680;53.800;9.988;2023-06-22T03:35:51;14.00;76.90
75994;DHT22;64680;53.800;9.988;2023-06-22T03:38:17;14.00;78.30
75994;DHT22;64680;53.800;9.988;2023-06-22T03:40:42;14.00;80.10
75994;DHT22;64680;53.800;9.988;2023-06-22T03:43:08;14.00;80.70
75994;DHT22;64680;53.800;9.988;2023-06-22T03:45:34;14.00;81.40
75994;DHT22;64680;53.800;9.988;2023-06-22T03:48:00;14.10;82.10
75994;DHT22;64680;53.800;9.988;2023-06-22T03:50:27;14.20;82.30
75994;DHT22;64680;53.800;9.988;2023-06-22T03:52:52;14.30;82.60
75994;DHT22;64680;53.800;9.988;2023-06-22T03:55:19;14.40;82.40
75994;DHT22;64680;53.800;9.988;2023-06-22T03:57:45;14.50;82.00
75994;DHT22;64680;53.800;9.988;2023-06-22T04:00:11;14.60;81.00
75994;DHT22;64680;53.800;9.988;2023-06-22T04:02:37;14.70;81.50
75994;DHT22;64680;53.800;9.988;2023-06-22T04:05:03;14.80;80.00
75994;DHT22;64680;53.800;9.988;2023-06-22T04:07:28;14.90;80.20
75994;DHT22;64680;53.800;9.988;2023-06-22T04:09:54;15.00;78.70
75994;DHT22;64680;53.800;9.988;2023-06-22T04:12:20;15.10;77.60
75994;DHT22;64680;53.800;9.988;2023-06-22T04:14:45;15.20;74.30
75994;DHT22;64680;53.800;9.988;2023-06-22T04:17:11;15.30;72.80
75994;DHT22;64680;53.800;9.988;2023-06-22T04:19:39;15.40;73.50
75994;DHT22;64680;53.800;9.988;2023-06-22T04:22:05;15.60;71.50
75994;DHT22;64680;53.800;9.988;2023-06-22T04:24:33;15.70;72.00
75994;DHT22;64680;53.800;9.988;2023-06-22T04:26:58;15.80;69.60
75994;DHT22;64680;53.800;9.988;2023-06-22T04:29:25;16.10;65.90
75994;DHT22;64680;53.800;9.988;2023-06-22T04:31:54;16.20;61.30
75994;DHT22;64680;53.800;9.988;2023-06-22T04:34:21;16.50;60.20
75994;DHT22;64680;53.800;9.988;2023-06-22T04:36:46;16.60;57.40
75994;DHT22;64680;53.800;9.988;2023-06-22T04:39:12;16.70;56.80
75994;DHT22;64680;53.800;9.988;2023-06-22T04:41:39;16.70;57.30
75994;DHT22;64680;53.800;9.988;2023-06-22T04:44:15;16.80;57.30
75994;DHT22;64680;53.800;9.988;2023-06-22T04:46:50;16.80;53.40
75994;DHT22;64680;53.800;9.988;2023-06-22T04:49:20;16.80;52.80
75994;DHT22;64680;53.800;9.988;2023-06-22T04:51:46;16.80;53.20
75994;DHT22;64680;53.800;9.988;2023-06-22T04:54:11;16.90;58.30
75994;DHT22;64680;53.800;9.988;2023-06-22T04:56:37;16.90;56.60
75994;DHT22;64680;53.800;9.988;2023-06-22T04:59:06;16.90;56.20
75994;DHT22;64680;53.800;9.988;2023-06-22T05:01:33;16.90;54.60
75994;DHT22;64680;53.800;9.988;2023-06-22T05:04:00;16.90;52.40
75994;DHT22;64680;53.800;9.988;2023-06-22T05:06:27;17.00;57.40
75994;DHT22;64680;53.800;9.988;2023-06-22T05:08:57;17.00;58.20
75994;DHT22;64680;53.800;9.988;2023-06-22T05:11:27;17.00;59.20
75994;DHT22;64680;53.800;9.988;2023-06-22T05:13:53;17.00;57.60
75994;DHT22;64680;53.800;9.988;2023-06-22T05:16:20;17.00;56.90
75994;DHT22;64680;53.800;9.988;2023-06-22T05:18:53;17.00;56.40
75994;DHT22;64680;53.800;9.988;2023-06-22T05:21:24;17.10;56.10
75994;DHT22;64680;53.800;9.988;2023-06-22T05:23:51;17.20;57.70
75994;DHT22;64680;53.800;9.988;2023-06-22T05:26:17;17.30;55.90
75994;DHT22;64680;53.800;9.988;2023-06-22T05:28:43;17.40;55.60
75994;DHT22;64680;53.800;9.988;2023-06-22T05:31:15;17.50;53.80
75994;DHT22;64680;53.800;9.988;2023-06-22T05:33:42;17.70;50.50
75994;DHT22;64680;53.800;9.988;2023-06-22T05:36:08;17.80;45.60
75994;DHT22;64680;53.800;9.988;2023-06-22T05:38:34;17.90;47.60
75994;DHT22;64680;53.800;9.988;2023-06-22T05:41:00;18.00;43.10
75994;DHT22;64680;53.800;9.988;2023-06-22T05:43:25;18.00;38.60
75994;DHT22;64680;53.800;9.988;2023-06-22T05:45:51;18.10;37.20
75994;DHT22;64680;53.800;9.988;2023-06-22T05:48:17;18.10;39.80
75994;DHT22;64680;53.800;9.988;2023-06-22T05:50:42;18.20;41.00
75994;DHT22;64680;53.800;9.988;2023-06-22T05:53:08;18.30;43.80
75994;DHT22;64680;53.800;9.988;2023-06-22T05:55:34;18.50;43.70
75994;DHT22;64680;53.800;9.988;2023-06-22T05:57:59;18.60;35.90
75994;DHT22;64680;53.800;9.988;2023-06-22T06:00:25;18.60;28.40
75994;DHT22;64680;53.800;9.988;2023-06-22T06:02:50;18.80;28.30
75994;DHT22;64680;53.800;9.988;2023-06-22T06:05:16;19.10;29.90
75994;DHT22;64680;53.800;9.988;2023-06-22T06:07:42;19.60;24.70
75994;DHT22;64680;53.800;9.988;2023-06-22T06:10:08;20.00;20.10
75994;DHT22;64680;53.800;9.988;2023-06-22T06:12:34;20.30;14.80
75994;DHT22;64680;53.800;9.988;2023-06-22T06:15:00;20.10;12.80
75994;DHT22;64680;53.800;9.988;2023-06-22T06:17:25;20.00;13.80
75994;DHT22;64680;53.800;9.988;2023-06-22T06:19:51;20.00;13.40
75994;DHT22;64680;53.800;9.988;2023-06-22T06:22:17;19.90;14.10
75994;DHT22;64680;53.800;9.988;2023-06-22T06:24:45;19.90;15.30
75994;DHT22;64680;53.800;9.988;2023-06-22T06:27:11;19.90;12.50
75994;DHT22;64680;53.800;9.988;2023-06-22T06:29:36;20.00;9.20
75994;DHT22;64680;53.800;9.988;2023-06-22T06:32:02;20.30;8.00
75994;DHT22;64680;53.800;9.988;2023-06-22T06:34:29;20.40;3.20
75994;DHT22;64680;53.800;9.988;2023-06-22T06:36:54;20.40;4.50
75994;DHT22;64680;53.800;9.988;2023-06-22T06:39:20;20.70;5.90
75994;DHT22;64680;53.800;9.988;2023-06-22T06:41:46;21.10;3.80
75994;DHT22;64680;53.800;9.988;2023-06-22T06:44:11;21.60;1.00
75994;DHT22;64680;53.800;9.988;2023-06-22T06:46:37;22.00;1.00
75994;DHT22;64680;53.800;9.988;2023-06-22T06:49:03;22.40;1.00
75994;DHT22;64680;53.800;9.988;2023-06-22T06:51:29;22.80;1.00
75994;DHT22;64680;53.800;9.988;2023-06-22T06:53:54;22.70;1.00
75994;DHT22;64680;53.800;9.988;2023-06-22T06:56:20;22.60;1.00
75994;DHT22;64680;53.800;9.988;2023-06-22T06:58:46;22.60;1.00
75994;DHT22;64680;53.800;9.988;2023-06-22T07:01:12;22.60;1.00
75994;DHT22;64680;53.800;9.988;2023-06-22T07:03:38;22.70;1.00
75994;DHT22;64680;53.800;9.988;2023-06-22T07:06:04;22.90;1.00
75994;DHT22;64680;53.800;9.988;2023-06-22T07:08:29;23.10;1.00
75994;DHT22;64680;53.800;9.988;2023-06-22T07:10:55;23.40;1.00
75994;DHT22;64680;53.800;9.988;2023-06-22T07:13:21;23.70;1.00
75994;DHT22;64680;53.800;9.988;2023-06-22T07:15:46;23.70;1.00
75994;DHT22;64680;53.800;9.988;2023-06-22T07:18:12;24.10;1.00
75994;DHT22;64680;53.800;9.988;2023-06-22T07:20:37;24.40;1.00
75994;DHT22;64680;53.800;9.988;2023-06-22T07:23:04;24.90;1.00
75994;DHT22;64680;53.800;9.988;2023-06-22T07:25:30;25.00;1.00
75994;DHT22;64680;53.800;9.988;2023-06-22T07:28:03;25.30;1.00
75994;DHT22;64680;53.800;9.988;2023-06-22T07:30:31;25.30;1.00
75994;DHT22;64680;53.800;9.988;2023-06-22T07:32:58;25.40;1.00
75994;DHT22;64680;53.800;9.988;2023-06-22T07:35:24;25.60;1.00
75994;DHT22;64680;53.800;9.988;2023-06-22T07:37:50;25.00;1.00
75994;DHT22;64680;53.800;9.988;2023-06-22T07:40:16;24.70;1.00
75994;DHT22;64680;53.800;9.988;2023-06-22T07:42:41;24.20;1.00
75994;DHT22;64680;53.800;9.988;2023-06-22T07:45:07;24.00;1.00
75994;DHT22;64680;53.800;9.988;2023-06-22T07:47:34;23.70;1.00
75994;DHT22;64680;53.800;9.988;2023-06-22T07:50:01;23.60;1.00
75994;DHT22;64680;53.800;9.988;2023-06-22T07:52:28;23.60;1.00
75994;DHT22;64680;53.800;9.988;2023-06-22T07:54:53;24.00;1.00
75994;DHT22;64680;53.800;9.988;2023-06-22T07:57:20;24.30;1.00
75994;DHT22;64680;53.800;9.988;2023-06-22T07:59:45;24.60;1.00
75994;DHT22;64680;53.800;9.988;2023-06-22T08:02:11;24.80;1.00
75994;DHT22;64680;53.800;9.988;2023-06-22T08:04:37;25.20;1.00
75994;DHT22;64680;53.800;9.988;2023-06-22T08:07:03;25.50;1.00
75994;DHT22;64680;53.800;9.988;2023-06-22T08:09:31;25.90;1.00
75994;DHT22;64680;53.800;9.988;2023-06-22T08:11:56;26.20;1.00
75994;DHT22;64680;53.800;9.988;2023-06-22T08:14:25;26.50;1.00
75994;DHT22;64680;53.800;9.988;2023-06-22T08:16:50;26.50;1.00
75994;DHT22;64680;53.800;9.988;2023-06-22T08:19:16;26.50;1.00
75994;DHT22;64680;53.800;9.988;2023-06-22T08:21:42;26.50;1.00
75994;DHT22;64680;53.800;9.988;2023-06-22T08:24:08;26.50;1.00
75994;DHT22;64680;53.800;9.988;2023-06-22T08:26:33;26.40;1.00
75994;DHT22;64680;53.800;9.988;2023-06-22T08:29:03;26.50;1.00
75994;DHT22;64680;53.800;9.988;2023-06-22T08:31:28;26.70;1.00
75994;DHT22;64680;53.800;9.988;2023-06-22T08:33:54;26.90;1.00
75994;DHT22;64680;53.800;9.988;2023-06-22T08:36:20;26.70;1.00
75994;DHT22;64680;53.800;9.988;2023-06-22T08:38:45;26.70;1.00
75994;DHT22;64680;53.800;9.988;2023-06-22T08:41:17;26.70;1.00
75994;DHT22;64680;53.800;9.988;2023-06-22T08:43:43;26.70;1.00
75994;DHT22;64680;53.800;9.988;2023-06-22T08:46:10;26.60;1.00
75994;DHT22;64680;53.800;9.988;2023-06-22T08:48:36;26.70;1.00
75994;DHT22;64680;53.800;9.988;2023-06-22T08:51:01;26.70;1.00
75994;DHT22;64680;53.800;9.988;2023-06-22T08:53:28;26.90;1.00
75994;DHT22;64680;53.800;9.988;2023-06-22T08:55:53;27.10;1.00
75994;DHT22;64680;53.800;9.988;2023-06-22T08:58:19;27.20;1.00
75994;DHT22;64680;53.800;9.988;2023-06-22T09:00:46;27.20;1.00
75994;DHT22;64680;53.800;9.988;2023-06-22T09:03:13;27.40;1.00
75994;DHT22;64680;53.800;9.988;2023-06-22T09:05:38;27.40;1.00
75994;DHT22;64680;53.800;9.988;2023-06-22T09:08:04;27.30;1.00
75994;DHT22;64680;53.800;9.988;2023-06-22T09:10:30;27.30;1.00
75994;DHT22;64680;53.800;9.988;2023-06-22T09:12:57;27.30;1.00
75994;DHT22;64680;53.800;9.988;2023-06-22T09:15:22;27.10;1.00
75994;DHT22;64680;53.800;9.988;2023-06-22T09:17:48;27.40;1.00
75994;DHT22;64680;53.800;9.988;2023-06-22T09:20:14;27.70;1.00
75994;DHT22;64680;53.800;9.988;2023-06-22T09:22:41;27.70;1.00
75994;DHT22;64680;53.800;9.988;2023-06-22T09:25:07;27.80;1.00
75994;DHT22;64680;53.800;9.988;2023-06-22T09:27:33;27.90;1.00
75994;DHT22;64680;53.800;9.988;2023-06-22T09:29:58;27.70;1.00
75994;DHT22;64680;53.800;9.988;2023-06-22T09:32:24;27.70;1.00
75994;DHT22;64680;53.800;9.988;2023-06-22T09:34:51;27.30;1.00
75994;DHT22;64680;53.800;9.988;2023-06-22T09:37:16;27.00;1.00
75994;DHT22;64680;53.800;9.988;2023-06-22T09:39:42;26.90;1.00
75994;DHT22;64680;53.800;9.988;2023-06-22T09:42:08;26.80;1.00
75994;DHT22;64680;53.800;9.988;2023-06-22T09:44:34;26.70;1.00
75994;DHT22;64680;53.800;9.988;2023-06-22T09:47:00;26.40;1.00
75994;DHT22;64680;53.800;9.988;2023-06-22T09:49:26;26.00;1.00
75994;DHT22;64680;53.800;9.988;2023-06-22T09:51:55;25.70;1.00
75994;DHT22;64680;53.800;9.988;2023-06-22T09:54:20;25.70;1.00
75994;DHT22;64680;53.800;9.988;2023-06-22T09:56:46;26.00;1.00
75994;DHT22;64680;53.800;9.988;2023-06-22T09:59:11;26.40;1.00
75994;DHT22;64680;53.800;9.988;2023-06-22T10:01:37;26.70;1.00
75994;DHT22;64680;53.800;9.988;2023-06-22T10:04:03;26.80;1.00
75994;DHT22;64680;53.800;9.988;2023-06-22T10:06:28;26.70;1.00
75994;DHT22;64680;53.800;9.988;2023-06-22T10:08:54;27.00;1.00
75994;DHT22;64680;53.800;9.988;2023-06-22T10:11:19;27.40;1.00
75994;DHT22;64680;53.800;9.988;2023-06-22T10:13:45;27.40;1.00
75994;DHT22;64680;53.800;9.988;2023-06-22T10:16:10;27.40;1.00
75994;DHT22;64680;53.800;9.988;2023-06-22T10:18:36;27.40;1.00
75994;DHT22;64680;53.800;9.988;2023-06-22T10:21:01;27.60;1.00
75994;DHT22;64680;53.800;9.988;2023-06-22T10:23:27;28.00;1.00
75994;DHT22;64680;53.800;9.988;2023-06-22T10:25:53;28.00;1.00
75994;DHT22;64680;53.800;9.988;2023-06-22T10:28:18;28.00;1.00
75994;DHT22;64680;53.800;9.988;2023-06-22T10:30:44;27.80;1.00
75994;DHT22;64680;53.800;9.988;2023-06-22T10:33:11;28.00;1.00
75994;DHT22;64680;53.800;9.988;2023-06-22T10:35:37;28.20;1.00
75994;DHT22;64680;53.800;9.988;2023-06-22T10:38:06;28.50;1.00
75994;DHT22;64680;53.800;9.988;2023-06-22T10:40:31;28.00;1.00
75994;DHT22;64680;53.800;9.988;2023-06-22T10:42:57;27.10;1.00
75994;DHT22;64680;53.800;9.988;2023-06-22T10:45:23;26.80;1.00
75994;DHT22;64680;53.800;9.988;2023-06-22T10:47:48;26.90;1.00
75994;DHT22;64680;53.800;9.988;2023-06-22T10:50:15;27.30;1.00
75994;DHT22;64680;53.800;9.988;2023-06-22T10:52:41;27.60;1.00
75994;DHT22;64680;53.800;9.988;2023-06-22T10:55:08;27.80;1.00
75994;DHT22;64680;53.800;9.988;2023-06-22T10:57:33;27.90;1.00
75994;DHT22;64680;53.800;9.988;2023-06-22T10:59:59;28.20;1.00
75994;DHT22;64680;53.800;9.988;2023-06-22T11:02:24;28.20;1.00
75994;DHT22;64680;53.800;9.988;2023-06-22T11:04:50;28.10;1.00
75994;DHT22;64680;53.800;9.988;2023-06-22T11:07:16;28.20;1.00
75994;DHT22;64680;53.800;9.988;2023-06-22T11:09:43;28.40;1.00
75994;DHT22;64680;53.800;9.988;2023-06-22T11:12:09;28.50;1.00
75994;DHT22;64680;53.800;9.988;2023-06-22T11:14:34;28.60;1.00
75994;DHT22;64680;53.800;9.988;2023-06-22T11:17:00;28.70;1.00
75994;DHT22;64680;53.800;9.988;2023-06-22T11:19:25;28.50;1.00
75994;DHT22;64680;53.800;9.988;2023-06-22T11:21:51;28.40;1.00
75994;DHT22;64680;53.800;9.988;2023-06-22T11:24:17;28.50;1.00
75994;DHT22;64680;53.800;9.988;2023-06-22T11:26:43;28.30;1.00
75994;DHT22;64680;53.800;9.988;2023-06-22T11:29:09;28.40;1.00
75994;DHT22;64680;53.800;9.988;2023-06-22T11:31:35;28.40;1.00
75994;DHT22;64680;53.800;9.988;2023-06-22T11:34:01;28.30;1.00
75994;DHT22;64680;53.800;9.988;2023-06-22T11:36:27;28.40;1.00
75994;DHT22;64680;53.800;9.988;2023-06-22T11:38:54;28.30;1.00
75994;DHT22;64680;53.800;9.988;2023-06-22T11:41:20;28.20;1.00
75994;DHT22;64680;53.800;9.988;2023-06-22T11:43:45;28.30;1.00
75994;DHT22;64680;53.800;9.988;2023-06-22T11:46:11;28.50;1.00
75994;DHT22;64680;53.800;9.988;2023-06-22T11:48:36;28.70;1.00
75994;DHT22;64680;53.800;9.988;2023-06-22T11:51:03;28.80;1.00
75994;DHT22;64680;53.800;9.988;2023-06-22T11:53:29;28.50;1.00
75994;DHT22;64680;53.800;9.988;2023-06-22T11:55:55;28.60;1.00
75994;DHT22;64680;53.800;9.988;2023-06-22T11:58:21;28.30;1.00
75994;DHT22;64680;53.800;9.988;2023-06-22T12:00:47;27.90;1.00
75994;DHT22;64680;53.800;9.988;2023-06-22T12:03:13;27.40;1.00
75994;DHT22;64680;53.800;9.988;2023-06-22T12:05:40;27.20;1.00
75994;DHT22;64680;53.800;9.988;2023-06-22T12:08:06;27.00;1.00
75994;DHT22;64680;53.800;9.988;2023-06-22T12:10:32;27.10;1.00
75994;DHT22;64680;53.800;9.988;2023-06-22T12:12:58;27.40;1.00
75994;DHT22;64680;53.800;9.988;2023-06-22T12:15:26;27.40;1.00
75994;DHT22;64680;53.800;9.988;2023-06-22T12:17:52;27.40;1.00
75994;DHT22;64680;53.800;9.988;2023-06-22T12:20:17;27.40;1.00
75994;DHT22;64680;53.800;9.988;2023-06-22T12:22:44;27.60;1.00
75994;DHT22;64680;53.800;9.988;2023-06-22T12:25:10;28.00;1.00
75994;DHT22;64680;53.800;9.988;2023-06-22T12:27:36;28.00;1.00
75994;DHT22;64680;53.800;9.988;2023-06-22T12:30:03;28.00;1.00
75994;DHT22;64680;53.800;9.988;2023-06-22T12:32:28;27.60;1.00
75994;DHT22;64680;53.800;9.988;2023-06-22T12:34:55;27.40;1.00
75994;DHT22;64680;53.800;9.988;2023-06-22T12:37:20;27.30;1.00
75994;DHT22;64680;53.800;9.988;2023-06-22T12:39:46;27.40;1.00
75994;DHT22;64680;53.800;9.988;2023-06-22T12:42:12;27.30;1.00
75994;DHT22;64680;53.800;9.988;2023-06-22T12:44:41;26.90;1.00
75994;DHT22;64680;53.800;9.988;2023-06-22T12:47:07;26.90;1.00
75994;DHT22;64680;53.800;9.988;2023-06-22T12:49:36;26.80;1.00
75994;DHT22;64680;53.800;9.988;2023-06-22T12:52:02;26.60;1.00
75994;DHT22;64680;53.800;9.988;2023-06-22T12:54:28;26.60;1.00
75994;DHT22;64680;53.800;9.988;2023-06-22T12:56:55;27.00;1.00
75994;DHT22;64680;53.800;9.988;2023-06-22T12:59:21;27.10;1.00
75994;DHT22;64680;53.800;9.988;2023-06-22T13:01:46;27.10;1.00
75994;DHT22;64680;53.800;9.988;2023-06-22T13:04:12;27.10;1.00
75994;DHT22;64680;53.800;9.988;2023-06-22T13:06:41;26.90;1.00
75994;DHT22;64680;53.800;9.988;2023-06-22T13:09:06;26.70;1.00
75994;DHT22;64680;53.800;9.988;2023-06-22T13:11:32;26.60;1.00
75994;DHT22;64680;53.800;9.988;2023-06-22T13:13:57;26.40;1.00
75994;DHT22;64680;53.800;9.988;2023-06-22T13:16:23;26.40;1.00
75994;DHT22;64680;53.800;9.988;2023-06-22T13:18:49;26.40;1.00
75994;DHT22;64680;53.800;9.988;2023-06-22T13:21:14;26.40;1.00
75994;DHT22;64680;53.800;9.988;2023-06-22T13:23:40;26.50;1.00
75994;DHT22;64680;53.800;9.988;2023-06-22T13:26:06;26.40;1.00
75994;DHT22;64680;53.800;9.988;2023-06-22T13:28:31;26.40;1.00
75994;DHT22;64680;53.800;9.988;2023-06-22T13:30:57;26.40;1.00
75994;DHT22;64680;53.800;9.988;2023-06-22T13:33:23;26.30;1.00
75994;DHT22;64680;53.800;9.988;2023-06-22T13:35:48;26.30;1.00
75994;DHT22;64680;53.800;9.988;2023-06-22T13:38:14;26.50;1.00
75994;DHT22;64680;53.800;9.988;2023-06-22T13:40:40;26.70;1.00
75994;DHT22;64680;53.800;9.988;2023-06-22T13:43:06;27.00;1.00
75994;DHT22;64680;53.800;9.988;2023-06-22T13:45:32;27.40;1.00
75994;DHT22;64680;53.800;9.988;2023-06-22T13:47:58;27.70;1.00
75994;DHT22;64680;53.800;9.988;2023-06-22T13:50:23;27.80;1.00
75994;DHT22;64680;53.800;9.988;2023-06-22T13:52:49;28.00;1.00
75994;DHT22;64680;53.800;9.988;2023-06-22T13:55:14;27.90;1.00
75994;DHT22;64680;53.800;9.988;2023-06-22T13:57:40;27.80;1.00
75994;DHT22;64680;53.800;9.988;2023-06-22T14:00:07;27.50;1.00
75994;DHT22;64680;53.800;9.988;2023-06-22T14:02:39;27.50;1.00
75994;DHT22;64680;53.800;9.988;2023-06-22T14:05:07;27.30;1.00
75994;DHT22;64680;53.800;9.988;2023-06-22T14:07:32;27.10;1.00
75994;DHT22;64680;53.800;9.988;2023-06-22T14:09:59;26.90;1.00
75994;DHT22;64680;53.800;9.988;2023-06-22T14:12:25;26.90;1.00
75994;DHT22;64680;53.800;9.988;2023-06-22T14:14:50;26.90;1.00
75994;DHT22;64680;53.800;9.988;2023-06-22T14:17:16;26.90;1.00
75994;DHT22;64680;53.800;9.988;2023-06-22T14:19:41;27.10;1.00
75994;DHT22;64680;53.800;9.988;2023-06-22T14:22:07;27.40;1.00
75994;DHT22;64680;53.800;9.988;2023-06-22T14:24:33;27.50;1.00
75994;DHT22;64680;53.800;9.988;2023-06-22T14:26:58;27.80;1.00
75994;DHT22;64680;53.800;9.988;2023-06-22T14:29:27;27.80;1.00
75994;DHT22;64680;53.800;9.988;2023-06-22T14:31:53;27.70;1.00
75994;DHT22;64680;53.800;9.988;2023-06-22T14:34:19;27.60;1.00
75994;DHT22;64680;53.800;9.988;2023-06-22T14:36:44;27.50;1.00
75994;DHT22;64680;53.800;9.988;2023-06-22T14:39:10;27.50;1.00
75994;DHT22;64680;53.800;9.988;2023-06-22T14:41:35;27.60;1.00
75994;DHT22;64680;53.800;9.988;2023-06-22T14:44:01;27.80;1.00
75994;DHT22;64680;53.800;9.988;2023-06-22T14:46:27;27.70;1.00
75994;DHT22;64680;53.800;9.988;2023-06-22T14:48:53;27.80;1.00
75994;DHT22;64680;53.800;9.988;2023-06-22T14:51:18;27.90;1.00
75994;DHT22;64680;53.800;9.988;2023-06-22T14:53:45;28.10;1.00
75994;DHT22;64680;53.800;9.988;2023-06-22T14:56:14;28.10;1.00
75994;DHT22;64680;53.800;9.988;2023-06-22T14:58:41;28.00;1.00
75994;DHT22;64680;53.800;9.988;2023-06-22T15:01:11;28.00;1.00
75994;DHT22;64680;53.800;9.988;2023-06-22T15:03:36;28.00;1.00
75994;DHT22;64680;53.800;9.988;2023-06-22T15:06:03;28.00;1.00
75994;DHT22;64680;53.800;9.988;2023-06-22T15:08:30;27.70;1.00
75994;DHT22;64680;53.800;9.988;2023-06-22T15:10:58;27.40;1.00
75994;DHT22;64680;53.800;9.988;2023-06-22T15:13:24;27.30;1.00
75994;DHT22;64680;53.800;9.988;2023-06-22T15:15:50;27.10;1.00
75994;DHT22;64680;53.800;9.988;2023-06-22T15:18:16;27.00;1.00
75994;DHT22;64680;53.800;9.988;2023-06-22T15:20:42;27.00;1.00
75994;DHT22;64680;53.800;9.988;2023-06-22T15:23:14;26.90;1.00
75994;DHT22;64680;53.800;9.988;2023-06-22T15:25:40;26.80;1.00
75994;DHT22;64680;53.800;9.988;2023-06-22T15:28:06;26.70;1.00
75994;DHT22;64680;53.800;9.988;2023-06-22T15:30:31;26.60;1.00
75994;DHT22;64680;53.800;9.988;2023-06-22T15:32:57;26.60;1.00
75994;DHT22;64680;53.800;9.988;2023-06-22T15:35:23;26.60;1.00
75994;DHT22;64680;53.800;9.988;2023-06-22T15:37:49;26.50;1.00
75994;DHT22;64680;53.800;9.988;2023-06-22T15:40:16;26.50;1.00
75994;DHT22;64680;53.800;9.988;2023-06-22T15:42:42;26.40;1.00
75994;DHT22;64680;53.800;9.988;2023-06-22T15:45:09;26.30;1.00
75994;DHT22;64680;53.800;9.988;2023-06-22T15:47:34;26.10;1.00
75994;DHT22;64680;53.800;9.988;2023-06-22T15:50:00;26.10;1.00
75994;DHT22;64680;53.800;9.988;2023-06-22T15:52:26;26.00;1.00